Time;durP1;ratioP1;P1;durP2;ratioP2;P2;SDS_P1;SDS_P2;PMS_P1;PMS_P2;Temp;Humidity;BMP_temperature;BMP_pressure;BME280_temperature;BME280_humidity;BME280_pressure;Samples;Min_cycle;Max_cycle;Signal;HPM_P1;HPM_P2
2022/04/25 00:02:01;;;;;;;17.52;10.65;;;8.90;99.90;;;;;;5086200;28;20089;-71
2022/04/25 00:04:27;;;;;;;19.02;10.65;;;8.90;99.90;;;;;;5091030;28;20122;-71
2022/04/25 00:06:52;;;;;;;22.02;11.75;;;8.90;99.90;;;;;;5084489;28;20448;-73
2022/04/25 00:09:18;;;;;;;22.30;11.70;;;8.90;99.90;;;;;;5079470;28;20067;-71
2022/04/25 00:11:44;;;;;;;18.90;11.30;;;8.90;99.90;;;;;;5082645;28;20515;-71
2022/04/25 00:14:11;;;;;;;18.65;11.23;;;8.90;99.90;;;;;;5080334;28;20051;-71
2022/04/25 00:16:37;;;;;;;24.83;11.48;;;8.80;99.90;;;;;;5079062;28;20040;-73
2022/04/25 00:19:03;;;;;;;19.98;11.55;;;8.80;99.90;;;;;;5090962;28;20054;-72
2022/04/25 00:21:29;;;;;;;20.85;11.13;;;8.80;99.90;;;;;;5070691;28;20044;-72
2022/04/25 00:23:55;;;;;;;20.58;11.43;;;8.80;99.90;;;;;;5087362;28;20354;-72
2022/04/25 00:26:21;;;;;;;20.23;11.63;;;8.90;99.90;;;;;;5084699;28;20404;-71
2022/04/25 00:28:47;;;;;;;19.13;11.50;;;8.80;99.90;;;;;;5093978;28;20075;-72
2022/04/25 00:31:13;;;;;;;22.77;11.52;;;8.80;99.90;;;;;;5093201;28;20509;-72
2022/04/25 00:33:39;;;;;;;20.65;11.27;;;8.80;99.90;;;;;;5078591;28;20048;-72
2022/04/25 00:36:05;;;;;;;19.85;11.75;;;8.80;99.90;;;;;;5054522;28;20057;-72
2022/04/25 00:38:31;;;;;;;22.42;11.32;;;8.60;99.90;;;;;;5072755;28;20048;-72
2022/04/25 00:40:57;;;;;;;19.85;11.73;;;8.60;99.90;;;;;;5092667;28;20055;-72
2022/04/25 00:43:23;;;;;;;20.25;10.95;;;8.60;99.90;;;;;;5093505;28;20044;-72
2022/04/25 00:45:49;;;;;;;17.27;11.00;;;8.60;99.90;;;;;;5117620;27;20101;-72
2022/04/25 00:48:15;;;;;;;19.95;10.63;;;8.60;99.90;;;;;;5055709;28;20041;-72
2022/04/25 00:50:41;;;;;;;18.52;10.95;;;8.60;99.90;;;;;;5074170;28;20083;-72
2022/04/25 00:53:08;;;;;;;20.75;11.45;;;8.60;99.90;;;;;;5096157;28;20123;-72
2022/04/25 00:55:36;;;;;;;21.20;11.38;;;8.60;99.90;;;;;;5083394;28;20484;-72
2022/04/25 00:58:02;;;;;;;19.73;11.40;;;8.70;99.90;;;;;;5091271;28;20088;-72
2022/04/25 01:00:28;;;;;;;18.95;10.98;;;8.70;99.90;;;;;;5099620;28;20048;-72
2022/04/25 01:02:54;;;;;;;21.75;11.45;;;8.70;99.90;;;;;;5089282;28;20059;-72
2022/04/25 01:05:21;;;;;;;19.13;10.60;;;8.70;99.90;;;;;;5072255;28;20071;-73
2022/04/25 01:07:47;;;;;;;22.58;10.40;;;8.70;99.90;;;;;;5101526;28;20036;-72
2022/04/25 01:10:13;;;;;;;19.50;11.23;;;8.70;99.90;;;;;;5098051;28;20126;-73
2022/04/25 01:12:38;;;;;;;22.90;11.32;;;8.70;99.90;;;;;;5095822;28;20040;-72
2022/04/25 01:15:05;;;;;;;20.55;10.70;;;8.70;99.90;;;;;;5100144;28;20064;-72
2022/04/25 01:17:31;;;;;;;20.02;11.07;;;8.70;99.90;;;;;;5093964;28;20040;-74
2022/04/25 01:19:57;;;;;;;18.90;10.75;;;8.70;99.90;;;;;;5075208;28;20131;-72
2022/04/25 01:22:44;;;;;;;16.17;9.90;;;8.80;99.90;;;;;;5091146;28;20051;-72
2022/04/25 01:27:55;;;;;;;17.88;10.35;;;8.80;99.90;;;;;;5098942;28;20056;-72
2022/04/25 01:30:21;;;;;;;18.45;9.57;;;8.80;99.90;;;;;;5087565;28;20047;-73
2022/04/25 01:32:47;;;;;;;17.30;9.10;;;8.80;99.90;;;;;;5076741;28;20488;-72
2022/04/25 01:35:13;;;;;;;16.20;9.15;;;8.80;99.90;;;;;;5090560;28;20492;-72
2022/04/25 01:37:38;;;;;;;16.48;10.10;;;8.70;99.90;;;;;;5090436;28;20515;-72
2022/04/25 01:40:05;;;;;;;19.27;9.85;;;8.80;99.90;;;;;;5092653;28;20125;-73
2022/04/25 01:42:31;;;;;;;17.83;9.30;;;8.70;99.90;;;;;;5098145;28;20043;-72
2022/04/25 01:44:57;;;;;;;18.08;9.43;;;8.70;99.90;;;;;;5093366;28;20585;-72
2022/04/25 01:47:24;;;;;;;16.73;9.40;;;8.70;99.90;;;;;;5096607;28;20492;-72
2022/04/25 01:49:50;;;;;;;15.95;8.63;;;8.70;99.90;;;;;;5081891;28;20054;-75
2022/04/25 01:52:29;;;;;;;24.30;9.48;;;8.70;99.90;;;;;;5098651;28;20047;-72
2022/04/25 01:54:55;;;;;;;18.42;9.02;;;8.70;99.90;;;;;;5093498;28;20563;-72
2022/04/25 01:57:21;;;;;;;16.35;9.07;;;8.60;99.90;;;;;;5096580;28;20491;-73
2022/04/25 01:59:47;;;;;;;16.58;9.27;;;8.60;99.90;;;;;;5057157;28;20075;-73
2022/04/25 02:02:14;;;;;;;16.80;9.75;;;8.60;99.90;;;;;;5080689;28;20051;-72
2022/04/25 02:04:41;;;;;;;20.00;10.63;;;8.60;99.90;;;;;;5091206;28;20487;-72
2022/04/25 02:07:08;;;;;;;17.50;9.77;;;8.60;99.90;;;;;;5074172;28;20416;-72
2022/04/25 02:09:35;;;;;;;19.20;9.82;;;8.50;99.90;;;;;;5090100;28;20056;-72
2022/04/25 02:12:01;;;;;;;17.55;9.13;;;8.50;99.90;;;;;;5074248;28;20043;-72
2022/04/25 02:14:29;;;;;;;17.38;9.48;;;8.50;99.90;;;;;;5090426;28;20054;-72
2022/04/25 02:16:56;;;;;;;18.55;9.75;;;8.50;99.90;;;;;;5096527;28;20192;-72
2022/04/25 02:19:22;;;;;;;17.63;9.95;;;8.50;99.90;;;;;;5074661;28;20047;-72
2022/04/25 02:21:48;;;;;;;21.52;10.00;;;8.40;99.90;;;;;;5096021;28;20046;-72
2022/04/25 02:24:14;;;;;;;17.08;10.65;;;8.40;99.90;;;;;;5096270;28;20564;-71
2022/04/25 02:26:39;;;;;;;16.13;9.93;;;8.40;99.90;;;;;;5064318;28;20101;-72
2022/04/25 02:29:05;;;;;;;21.88;10.68;;;8.40;99.90;;;;;;5086325;28;20401;-72
2022/04/25 02:31:31;;;;;;;18.65;9.45;;;8.40;99.90;;;;;;5083649;28;20044;-72
2022/04/25 02:33:57;;;;;;;15.85;10.15;;;8.40;99.90;;;;;;5090053;28;20036;-73
2022/04/25 02:36:24;;;;;;;18.00;9.57;;;8.40;99.90;;;;;;5092738;28;20059;-73
2022/04/25 02:38:50;;;;;;;21.10;8.98;;;8.40;99.90;;;;;;5091909;28;20501;-72
2022/04/25 02:41:16;;;;;;;18.30;10.15;;;8.40;99.90;;;;;;5092076;28;20199;-73
2022/04/25 02:43:43;;;;;;;19.88;9.73;;;8.40;99.90;;;;;;5090110;28;20052;-74
2022/04/25 02:46:13;;;;;;;18.77;9.98;;;8.40;99.90;;;;;;5090412;28;20055;-75
2022/04/25 02:48:40;;;;;;;17.25;9.43;;;8.40;99.90;;;;;;5124571;28;20140;-74
2022/04/25 02:51:08;;;;;;;19.15;10.00;;;8.40;99.90;;;;;;5073771;28;20570;-71
2022/04/25 02:53:35;;;;;;;19.80;10.57;;;8.40;99.90;;;;;;5073801;28;20091;-74
2022/04/25 02:56:02;;;;;;;16.90;10.57;;;8.30;99.90;;;;;;5088867;28;20048;-72
2022/04/25 02:58:29;;;;;;;19.17;10.48;;;8.40;99.90;;;;;;5089662;28;20105;-72
2022/04/25 03:00:57;;;;;;;18.60;10.57;;;8.40;99.90;;;;;;5094180;28;20066;-72
2022/04/25 03:03:26;;;;;;;17.40;10.40;;;8.40;99.90;;;;;;5090201;28;20047;-72
2022/04/25 03:05:55;;;;;;;19.05;10.15;;;8.30;99.90;;;;;;5075002;28;20052;-72
2022/04/25 03:08:22;;;;;;;15.07;9.68;;;8.30;99.90;;;;;;5100265;28;20048;-72
2022/04/25 03:10:51;;;;;;;16.10;9.57;;;8.40;99.90;;;;;;5072453;28;20040;-73
2022/04/25 03:13:18;;;;;;;18.00;10.50;;;8.40;99.90;;;;;;5089910;28;20051;-72
2022/04/25 03:15:47;;;;;;;16.63;10.07;;;8.30;99.90;;;;;;5090388;28;20040;-72
2022/04/25 03:18:15;;;;;;;17.80;10.43;;;8.30;99.90;;;;;;5075239;28;20140;-73
2022/04/25 03:20:46;;;;;;;18.23;10.65;;;8.30;99.90;;;;;;5097346;28;20036;-72
2022/04/25 03:23:14;;;;;;;17.67;9.95;;;8.30;99.90;;;;;;5095060;28;20043;-72
2022/04/25 03:25:41;;;;;;;16.05;10.05;;;8.30;99.90;;;;;;5094646;28;20074;-73
2022/04/25 03:28:07;;;;;;;16.75;9.25;;;8.40;99.90;;;;;;5093923;28;20066;-72
2022/04/25 03:30:33;;;;;;;16.90;9.13;;;8.30;99.90;;;;;;5092454;28;20115;-72
2022/04/25 03:32:59;;;;;;;17.98;9.63;;;8.40;99.90;;;;;;5057252;28;20481;-72
2022/04/25 03:35:26;;;;;;;15.55;9.15;;;8.40;99.90;;;;;;5079877;28;20091;-73
2022/04/25 03:37:53;;;;;;;14.80;8.93;;;8.30;99.90;;;;;;5091576;28;20048;-72
2022/04/25 03:40:19;;;;;;;15.27;9.13;;;8.30;99.90;;;;;;5091141;28;20060;-72
2022/04/25 03:42:45;;;;;;;16.25;8.77;;;8.30;99.90;;;;;;5086916;28;20079;-72
2022/04/25 03:45:16;;;;;;;16.55;9.20;;;8.40;99.90;;;;;;5076549;28;20039;-72
2022/04/25 03:47:43;;;;;;;17.67;9.35;;;8.30;99.90;;;;;;5076984;28;20055;-72
2022/04/25 03:50:11;;;;;;;15.85;8.90;;;8.30;99.90;;;;;;5079538;28;20454;-72
2022/04/25 03:52:38;;;;;;;18.33;9.77;;;8.30;99.90;;;;;;5098586;28;20048;-73
2022/04/25 03:57:54;;;;;;;15.45;9.70;;;8.30;99.90;;;;;;5078767;28;20075;-74
2022/04/25 04:00:21;;;;;;;14.63;9.00;;;8.30;99.90;;;;;;5094004;28;20044;-73
2022/04/25 04:02:48;;;;;;;16.23;9.38;;;8.40;99.90;;;;;;5093470;28;20381;-74
2022/04/25 04:05:14;;;;;;;17.40;9.45;;;8.40;99.90;;;;;;5076023;28;20060;-72
2022/04/25 04:07:41;;;;;;;18.30;9.75;;;8.40;99.90;;;;;;5095107;28;20051;-72
2022/04/25 04:10:08;;;;;;;16.67;9.27;;;8.40;99.90;;;;;;5097160;28;20481;-73
2022/04/25 04:12:35;;;;;;;17.75;10.13;;;8.40;99.90;;;;;;5092952;28;20122;-72
2022/04/25 04:15:04;;;;;;;16.38;9.75;;;8.30;99.90;;;;;;5080376;28;20041;-74
2022/04/25 04:17:31;;;;;;;14.57;9.60;;;8.40;99.90;;;;;;5106835;28;20045;-74
2022/04/25 04:19:58;;;;;;;16.15;10.00;;;8.40;99.90;;;;;;5047880;28;20119;-72
2022/04/25 04:22:25;;;;;;;19.73;10.52;;;8.40;99.90;;;;;;5094875;28;20048;-73
2022/04/25 04:24:52;;;;;;;18.17;10.32;;;8.40;99.90;;;;;;5080540;28;20036;-72
2022/04/25 04:27:18;;;;;;;16.13;9.77;;;8.40;99.90;;;;;;5093147;28;20079;-72
2022/04/25 04:29:44;;;;;;;15.32;9.45;;;8.40;99.90;;;;;;5091621;28;20477;-73
2022/04/25 04:32:13;;;;;;;17.88;10.32;;;8.40;99.90;;;;;;5093232;28;20392;-72
2022/04/25 04:34:39;;;;;;;16.70;9.77;;;8.50;99.90;;;;;;5075534;28;20048;-73
2022/04/25 04:37:06;;;;;;;16.30;9.55;;;8.40;99.90;;;;;;5096571;28;20048;-73
2022/04/25 04:39:33;;;;;;;17.65;9.80;;;8.40;99.90;;;;;;5092761;28;20374;-73
2022/04/25 04:41:59;;;;;;;14.85;9.10;;;8.40;99.90;;;;;;5106863;27;20056;-72
2022/04/25 04:44:25;;;;;;;19.38;9.68;;;8.40;99.90;;;;;;5085710;28;20152;-73
2022/04/25 04:46:51;;;;;;;19.27;9.57;;;8.40;99.90;;;;;;5076103;28;20092;-73
2022/04/25 04:49:16;;;;;;;13.77;9.40;;;8.50;99.90;;;;;;5092847;28;20047;-74
2022/04/25 04:51:43;;;;;;;17.90;9.60;;;8.50;99.90;;;;;;5077747;28;20051;-73
2022/04/25 04:54:09;;;;;;;14.68;9.10;;;8.40;99.90;;;;;;5092343;28;20070;-72
2022/04/25 04:56:35;;;;;;;18.20;8.80;;;8.40;99.90;;;;;;5075084;28;20135;-73
2022/04/25 04:59:03;;;;;;;17.85;9.38;;;8.50;99.90;;;;;;5076015;28;20421;-73
2022/04/25 05:01:29;;;;;;;13.95;8.52;;;8.50;99.90;;;;;;5092455;28;20489;-74
2022/04/25 05:03:58;;;;;;;14.23;8.68;;;8.40;99.90;;;;;;5091727;28;20087;-72
2022/04/25 05:06:28;;;;;;;12.52;8.13;;;8.40;99.90;;;;;;5095028;28;20051;-74
2022/04/25 05:08:54;;;;;;;14.43;8.73;;;8.40;99.90;;;;;;5080237;28;20040;-72
2022/04/25 05:11:21;;;;;;;13.38;8.40;;;8.40;99.90;;;;;;5075542;28;20131;-72
2022/04/25 05:13:47;;;;;;;15.05;9.02;;;8.30;99.90;;;;;;5091837;28;20066;-72
2022/04/25 05:16:13;;;;;;;17.60;8.32;;;8.40;99.90;;;;;;5075269;28;20147;-72
2022/04/25 05:18:39;;;;;;;13.55;8.45;;;8.30;99.90;;;;;;5091116;28;20050;-73
2022/04/25 05:21:06;;;;;;;15.05;8.55;;;8.30;99.90;;;;;;5071681;28;20048;-73
2022/04/25 05:23:32;;;;;;;14.60;8.63;;;8.30;99.90;;;;;;5091623;28;20043;-74
2022/04/25 05:25:58;;;;;;;15.30;8.57;;;8.30;99.90;;;;;;5075086;28;20051;-71
2022/04/25 05:28:29;;;;;;;13.80;8.88;;;8.30;99.90;;;;;;5126239;27;20051;-72
2022/04/25 05:30:55;;;;;;;14.55;8.40;;;8.30;99.90;;;;;;5091874;28;20040;-72
2022/04/25 05:33:21;;;;;;;14.63;8.38;;;8.30;99.90;;;;;;5091458;28;20052;-72
2022/04/25 05:35:47;;;;;;;15.40;8.52;;;8.40;99.90;;;;;;5096691;28;20051;-72
2022/04/25 05:38:13;;;;;;;14.27;8.60;;;8.40;99.90;;;;;;5095944;28;20066;-71
2022/04/25 05:40:40;;;;;;;13.82;8.38;;;8.50;99.90;;;;;;5125240;27;20047;-71
2022/04/25 05:43:07;;;;;;;14.52;8.93;;;8.50;99.90;;;;;;5091286;28;20392;-72
2022/04/25 05:45:34;;;;;;;15.98;9.32;;;8.50;99.90;;;;;;5075336;28;20099;-72
2022/04/25 05:48:01;;;;;;;16.63;9.25;;;8.50;99.90;;;;;;5072912;28;20048;-72
2022/04/25 05:53:13;;;;;;;15.65;8.80;;;8.60;99.90;;;;;;5091191;28;20051;-72
2022/04/25 05:55:41;;;;;;;13.85;8.25;;;8.70;99.90;;;;;;5101176;28;20135;-72
2022/04/25 05:58:08;;;;;;;15.98;9.07;;;8.60;99.90;;;;;;5091965;28;20051;-71
2022/04/25 06:00:35;;;;;;;17.75;8.93;;;8.60;99.90;;;;;;5091698;28;20052;-71
2022/04/25 06:03:02;;;;;;;14.63;8.23;;;8.60;99.90;;;;;;5094292;28;20547;-74
2022/04/25 06:05:28;;;;;;;12.70;8.40;;;8.50;99.90;;;;;;5098793;28;20048;-71
2022/04/25 06:07:54;;;;;;;16.70;9.07;;;8.50;99.90;;;;;;5095581;28;20044;-72
2022/04/25 06:10:22;;;;;;;19.15;9.02;;;8.50;99.90;;;;;;5081709;28;20123;-72
2022/04/25 06:12:53;;;;;;;14.48;8.43;;;8.50;99.90;;;;;;5090592;28;20048;-72
2022/04/25 06:15:21;;;;;;;15.68;8.38;;;8.50;99.90;;;;;;5090925;28;20127;-71
2022/04/25 06:17:47;;;;;;;14.98;8.02;;;8.50;99.90;;;;;;5096222;28;20077;-71
2022/04/25 06:20:13;;;;;;;13.13;7.68;;;8.50;99.90;;;;;;5094444;28;20492;-72
2022/04/25 06:22:51;;;;;;;14.82;8.05;;;8.60;99.90;;;;;;5095216;28;20039;-72
2022/04/25 06:25:17;;;;;;;12.45;8.18;;;8.50;99.90;;;;;;5078624;28;20127;-72
2022/04/25 06:27:42;;;;;;;14.65;8.35;;;8.60;99.90;;;;;;5092310;28;20123;-72
2022/04/25 06:30:09;;;;;;;16.00;8.88;;;8.60;99.90;;;;;;5095478;28;20145;-71
2022/04/25 06:32:36;;;;;;;18.33;9.05;;;8.60;99.90;;;;;;5078638;28;20445;-72
2022/04/25 06:35:02;;;;;;;16.85;9.40;;;8.50;99.90;;;;;;5077599;28;20076;-73
2022/04/25 06:37:28;;;;;;;21.45;10.15;;;8.50;99.90;;;;;;5091750;28;20124;-71
2022/04/25 06:39:54;;;;;;;18.95;9.93;;;8.40;99.90;;;;;;5077308;28;20056;-74
2022/04/25 06:42:21;;;;;;;17.63;9.57;;;8.40;99.90;;;;;;5090691;28;20128;-72
2022/04/25 06:44:47;;;;;;;18.70;10.32;;;8.50;99.90;;;;;;5090079;28;20055;-71
2022/04/25 06:47:13;;;;;;;17.05;10.13;;;8.40;99.90;;;;;;5090334;28;20040;-71
2022/04/25 06:49:39;;;;;;;18.92;9.40;;;8.50;99.90;;;;;;5083901;28;20052;-73
2022/04/25 06:52:07;;;;;;;16.55;9.90;;;8.40;99.90;;;;;;5093655;28;20048;-73
2022/04/25 06:54:35;;;;;;;17.15;9.73;;;8.50;99.90;;;;;;5095749;28;20445;-71
2022/04/25 06:57:01;;;;;;;14.32;10.05;;;8.50;99.90;;;;;;5121973;27;20052;-72
2022/04/25 06:59:27;;;;;;;19.02;10.10;;;8.50;99.90;;;;;;5092273;28;20036;-72
2022/04/25 07:01:53;;;;;;;18.23;10.73;;;8.40;99.90;;;;;;5077791;28;20083;-72
2022/04/25 07:04:20;;;;;;;18.55;10.40;;;8.40;99.90;;;;;;5095190;28;20048;-72
2022/04/25 07:06:46;;;;;;;17.05;9.98;;;8.50;99.90;;;;;;5092000;28;20052;-72
2022/04/25 07:09:13;;;;;;;19.70;10.95;;;8.50;99.90;;;;;;5108223;28;20075;-72
2022/04/25 07:11:43;;;;;;;20.92;11.45;;;8.40;99.90;;;;;;5077668;28;20052;-72
2022/04/25 07:14:14;;;;;;;21.65;11.02;;;8.50;99.90;;;;;;5082166;28;20051;-73
2022/04/25 07:16:45;;;;;;;21.05;10.43;;;8.50;99.90;;;;;;5092594;28;20044;-72
2022/04/25 07:19:12;;;;;;;17.77;10.15;;;8.50;99.90;;;;;;5076987;28;20044;-71
2022/04/25 07:29:52;;;;;;;15.15;8.18;;;8.50;99.90;;;;;;5103495;28;20057;-72
2022/04/25 07:32:20;;;;;;;15.48;8.68;;;8.60;99.90;;;;;;5098172;28;20074;-72
2022/04/25 07:34:47;;;;;;;17.13;9.10;;;8.70;99.90;;;;;;5101067;28;20054;-72
2022/04/25 07:37:18;;;;;;;16.17;9.18;;;8.70;99.90;;;;;;5099219;28;20557;-73
2022/04/25 07:39:47;;;;;;;13.77;9.10;;;8.70;99.90;;;;;;5082544;28;20112;-72
2022/04/25 07:42:15;;;;;;;14.85;8.65;;;8.70;99.90;;;;;;5104146;28;20039;-72
2022/04/25 07:44:42;;;;;;;17.38;8.32;;;8.70;99.90;;;;;;5097888;28;20045;-72
2022/04/25 07:47:09;;;;;;;15.57;8.45;;;8.70;99.90;;;;;;5085836;28;20484;-72
2022/04/25 07:49:35;;;;;;;14.75;8.20;;;8.70;99.90;;;;;;5084690;28;20039;-71
2022/04/25 07:52:01;;;;;;;18.23;8.18;;;8.30;99.90;;;;;;5099131;28;20078;-71
2022/04/25 07:54:27;;;;;;;14.10;7.85;;;8.70;99.90;;;;;;5090392;28;20134;-73
2022/04/25 07:56:55;;;;;;;14.63;7.82;;;8.80;99.90;;;;;;5084957;28;20047;-72
2022/04/25 07:59:21;;;;;;;12.65;7.70;;;8.70;99.90;;;;;;5107456;28;20051;-73
2022/04/25 08:01:48;;;;;;;10.85;7.03;;;8.80;99.90;;;;;;5072742;28;20044;-72
2022/04/25 08:04:14;;;;;;;14.57;7.15;;;8.80;99.90;;;;;;5096410;28;20058;-72
2022/04/25 08:06:40;;;;;;;10.85;6.78;;;8.80;99.90;;;;;;5093777;28;20040;-73
2022/04/25 08:09:06;;;;;;;13.00;6.32;;;8.80;99.90;;;;;;5082346;28;20095;-72
2022/04/25 08:11:33;;;;;;;16.63;6.80;;;8.90;99.90;;;;;;5080230;28;20487;-72
2022/04/25 08:19:36;;;;;;;;;;;9.00;99.90;;;;;;5083979;28;20439;-74
2022/04/25 08:22:07;;;;;;;11.13;5.55;;;8.70;99.90;;;;;;5080179;28;19928;-72
2022/04/25 08:24:36;;;;;;;10.82;5.15;;;9.00;99.90;;;;;;5067457;28;20127;-72
2022/04/25 08:27:05;;;;;;;11.05;4.90;;;9.10;99.90;;;;;;5079747;28;20472;-72
2022/04/25 08:29:32;;;;;;;9.77;5.30;;;9.10;99.90;;;;;;5116658;27;20480;-71
2022/04/25 08:31:59;;;;;;;12.10;5.30;;;9.20;99.90;;;;;;5091749;28;20044;-72
2022/04/25 08:34:25;;;;;;;11.13;4.90;;;9.30;99.90;;;;;;5101161;28;20159;-72
2022/04/25 08:36:52;;;;;;;11.13;5.47;;;9.30;99.90;;;;;;5077820;28;20059;-71
2022/04/25 08:39:19;;;;;;;8.40;4.70;;;9.40;99.90;;;;;;5093171;28;20052;-76
2022/04/25 08:41:53;;;;;;;10.25;5.03;;;9.50;99.90;;;;;;5076472;28;20055;-74
2022/04/25 08:44:22;;;;;;;8.90;5.93;;;9.60;99.90;;;;;;5095250;28;20524;-72
2022/04/25 08:46:51;;;;;;;10.35;6.10;;;9.60;99.90;;;;;;5087007;28;20043;-72
2022/04/25 08:49:22;;;;;;;8.27;5.47;;;9.60;99.90;;;;;;5098252;28;20074;-73
2022/04/25 08:51:49;;;;;;;8.52;5.40;;;9.70;99.90;;;;;;5091856;28;20040;-72
2022/04/25 08:54:17;;;;;;;10.57;6.05;;;9.80;99.90;;;;;;5092122;28;20076;-73
2022/04/25 08:56:44;;;;;;;13.70;6.15;;;10.00;99.90;;;;;;5091936;28;20509;-76
2022/04/25 08:59:10;;;;;;;11.48;5.93;;;10.20;99.90;;;;;;5105252;27;20123;-74
2022/04/25 09:01:40;;;;;;;11.88;5.60;;;10.40;99.90;;;;;;5083083;28;20044;-73
2022/04/25 09:04:06;;;;;;;9.65;5.70;;;10.50;99.90;;;;;;5096549;28;20138;-73
2022/04/25 09:06:32;;;;;;;10.45;5.85;;;10.80;99.90;;;;;;5098886;28;20042;-72
2022/04/25 09:08:59;;;;;;;12.35;5.50;;;11.00;99.90;;;;;;5097269;28;20055;-73
2022/04/25 09:14:10;;;;;;;8.43;5.78;;;11.10;99.90;;;;;;5095802;28;20104;-74
2022/04/25 09:16:37;;;;;;;9.30;5.78;;;11.30;99.90;;;;;;5079856;28;20067;-73
2022/04/25 09:19:03;;;;;;;11.15;5.80;;;11.30;99.90;;;;;;5113825;27;20040;-72
2022/04/25 09:21:29;;;;;;;10.85;5.85;;;11.60;99.90;;;;;;5097751;28;20048;-74
2022/04/25 09:23:58;;;;;;;9.07;5.45;;;11.70;99.90;;;;;;5097214;28;20058;-72
2022/04/25 09:26:28;;;;;;;9.82;6.22;;;11.60;99.90;;;;;;5101057;28;20049;-70
2022/04/25 09:28:57;;;;;;;11.95;6.28;;;11.80;99.90;;;;;;5094199;28;20112;-73
2022/04/25 09:31:26;;;;;;;7.68;5.65;;;11.90;99.90;;;;;;5071755;28;20043;-69
2022/04/25 09:33:53;;;;;;;10.23;5.75;;;11.90;99.90;;;;;;5096348;28;20035;-69
2022/04/25 09:36:23;;;;;;;8.55;4.97;;;11.90;99.90;;;;;;5082539;28;20055;-71
2022/04/25 09:38:49;;;;;;;11.10;6.03;;;11.80;99.90;;;;;;5088512;28;20058;-69
2022/04/25 09:41:16;;;;;;;11.25;5.80;;;11.80;99.90;;;;;;5085877;28;20048;-70
2022/04/25 09:43:44;;;;;;;9.32;5.75;;;11.80;99.90;;;;;;5089380;28;20118;-70
2022/04/25 09:46:13;;;;;;;9.55;5.57;;;11.80;99.90;;;;;;5096070;28;20048;-70
2022/04/25 09:48:41;;;;;;;8.85;5.93;;;11.90;99.90;;;;;;5094318;28;20044;-71
2022/04/25 09:51:11;;;;;;;9.93;5.90;;;12.00;99.90;;;;;;5066165;28;20039;-70
2022/04/25 09:53:54;;;;;;;9.20;6.25;;;12.10;99.90;;;;;;5071426;28;20114;-69
2022/04/25 09:56:31;;;;;;;12.00;6.28;;;12.30;99.90;;;;;;5081505;28;20049;-69
2022/04/25 09:59:15;;;;;;;11.93;6.15;;;12.30;99.90;;;;;;5099750;28;20633;-70
2022/04/25 10:01:43;;;;;;;10.85;6.55;;;12.40;99.90;;;;;;5094099;28;20399;-70
2022/04/25 10:04:31;;;;;;;11.43;6.22;;;12.70;99.90;;;;;;5066638;28;20109;-69
2022/04/25 10:07:09;;;;;;;9.10;5.68;;;12.80;99.90;;;;;;5097422;28;20044;-69
2022/04/25 10:09:36;;;;;;;8.50;5.70;;;12.90;99.90;;;;;;5110476;27;20040;-74
2022/04/25 10:12:04;;;;;;;9.93;5.47;;;13.00;99.90;;;;;;5095783;28;20044;-68
2022/04/25 10:14:30;;;;;;;9.20;5.32;;;13.00;99.90;;;;;;5092940;28;20385;-69
2022/04/25 10:16:57;;;;;;;9.55;5.85;;;13.20;99.90;;;;;;5079627;28;20062;-67
2022/04/25 10:19:24;;;;;;;9.32;5.53;;;13.30;99.90;;;;;;5081506;28;20051;-70
2022/04/25 10:21:55;;;;;;;9.88;6.07;;;13.40;99.90;;;;;;5101074;28;20071;-67
2022/04/25 10:24:21;;;;;;;9.27;6.20;;;13.50;99.90;;;;;;5081353;28;20047;-67
2022/04/25 10:26:49;;;;;;;10.55;5.95;;;13.40;99.90;;;;;;5100252;28;20056;-67
2022/04/25 10:29:21;;;;;;;11.20;6.32;;;13.60;99.90;;;;;;5095610;28;20066;-68
2022/04/25 10:31:49;;;;;;;8.77;6.03;;;13.70;99.90;;;;;;5095280;28;20168;-68
2022/04/25 10:34:16;;;;;;;8.73;5.57;;;13.80;99.90;;;;;;5085841;28;20112;-69
2022/04/25 10:36:44;;;;;;;8.95;5.82;;;14.10;99.90;;;;;;5076987;28;20507;-81
2022/04/25 10:39:17;;;;;;;12.43;6.05;;;14.30;99.90;;;;;;5095231;28;20045;-83
2022/04/25 10:44:42;;;;;;;11.07;5.70;;;14.50;99.90;;;;;;5112240;28;20076;-87
2022/04/25 10:47:13;;;;;;;9.48;5.55;;;14.60;99.90;;;;;;5097233;28;20047;-74
2022/04/25 10:49:46;;;;;;;9.65;5.70;;;14.70;99.90;;;;;;5118994;28;20052;-69
2022/04/25 10:52:37;;;;;;;9.55;5.90;;;14.70;99.90;;;;;;5093155;28;20052;-69
2022/04/25 10:55:11;;;;;;;10.10;5.63;;;14.90;99.90;;;;;;5099678;28;20067;-69
2022/04/25 10:57:37;;;;;;;7.32;5.40;;;14.90;99.90;;;;;;5094930;28;20056;-70
2022/04/25 11:00:39;;;;;;;9.50;5.63;;;14.90;99.90;;;;;;5098825;28;20082;-69
2022/04/25 11:03:27;;;;;;;9.00;5.85;;;15.10;99.90;;;;;;5107428;28;20139;-71
2022/04/25 11:05:57;;;;;;;10.25;6.03;;;15.00;99.90;;;;;;5088354;28;20512;-68
2022/04/25 11:08:24;;;;;;;12.20;6.07;;;15.00;99.90;;;;;;5071638;28;20100;-69
2022/04/25 11:10:52;;;;;;;11.45;5.93;;;15.00;99.90;;;;;;5093533;28;20048;-70
2022/04/25 11:13:18;;;;;;;10.63;6.65;;;15.00;99.90;;;;;;5079174;28;20040;-68
2022/04/25 11:15:46;;;;;;;8.45;5.70;;;15.10;99.90;;;;;;5090412;28;20051;-69
2022/04/25 11:18:37;;;;;;;11.98;6.30;;;15.10;99.90;;;;;;5110385;28;20052;-69
2022/04/25 11:21:16;;;;;;;7.95;5.82;;;15.00;99.90;;;;;;5096629;28;20131;-69
2022/04/25 11:23:48;;;;;;;10.85;6.38;;;15.10;99.90;;;;;;5095380;28;20051;-68
2022/04/25 11:26:23;;;;;;;8.27;5.80;;;15.00;99.90;;;;;;5089160;28;20047;-69
2022/04/25 11:28:58;;;;;;;9.50;6.88;;;14.90;99.90;;;;;;5068008;28;20135;-68
2022/04/25 11:31:25;;;;;;;11.02;6.60;;;14.80;99.90;;;;;;5083521;28;20362;-75
2022/04/25 11:34:01;;;;;;;9.65;6.68;;;14.80;99.90;;;;;;5065560;28;20044;-71
2022/04/25 11:36:29;;;;;;;9.63;5.88;;;14.80;99.90;;;;;;5084377;28;20562;-79
2022/04/25 11:41:41;;;;;;;10.18;6.85;;;14.90;99.90;;;;;;5088777;28;20507;-70
2022/04/25 11:44:08;;;;;;;8.45;6.00;;;15.00;99.90;;;;;;5089996;28;20052;-69
2022/04/25 11:46:36;;;;;;;7.80;5.88;;;15.00;99.90;;;;;;5079505;28;20052;-70
2022/04/25 11:49:03;;;;;;;10.68;6.28;;;15.30;99.90;;;;;;5096343;28;20472;-70
2022/04/25 11:51:34;;;;;;;11.50;6.57;;;15.60;99.90;;;;;;5078024;28;20118;-71
2022/04/25 11:54:04;;;;;;;;;;;15.70;99.90;;;;;;5070212;28;20040;-70
2022/04/25 11:56:33;;;;;;;9.50;6.25;;;15.90;99.90;;;;;;5097815;28;19936;-73
2022/04/25 11:59:05;;;;;;;9.10;5.82;;;16.20;99.90;;;;;;5117802;27;20389;-71
2022/04/25 12:01:38;;;;;;;9.45;5.53;;;16.40;99.90;;;;;;5095345;28;20455;-70
2022/04/25 12:04:19;;;;;;;10.15;6.22;;;16.60;99.90;;;;;;5073272;28;20052;-69
2022/04/25 12:06:51;;;;;;;8.70;5.93;;;16.70;94.30;;;;;;5098331;28;20035;-70
2022/04/25 12:17:51;;;;;;;7.47;5.43;;;16.30;93.90;;;;;;5115487;27;20126;-70
2022/04/25 12:20:20;;;;;;;9.98;5.70;;;16.20;98.70;;;;;;5075660;28;20056;-69
2022/04/25 12:22:54;;;;;;;10.73;6.03;;;16.10;99.40;;;;;;5075536;28;20039;-71
2022/04/25 12:25:25;;;;;;;8.45;6.00;;;16.10;92.70;;;;;;5076525;28;20076;-69
2022/04/25 12:28:02;;;;;;;8.38;5.75;;;16.10;96.80;;;;;;5085737;28;20118;-69
2022/04/25 12:30:29;;;;;;;9.00;5.78;;;15.90;93.10;;;;;;5099366;28;20084;-70
2022/04/25 12:33:14;;;;;;;9.02;6.30;;;15.80;98.80;;;;;;5080904;28;20058;-70
2022/04/25 12:35:41;;;;;;;8.85;5.90;;;15.60;94.80;;;;;;5096669;28;20514;-73
2022/04/25 12:38:09;;;;;;;9.77;5.80;;;15.40;99.90;;;;;;5098190;28;20048;-71
2022/04/25 12:40:55;;;;;;;7.03;5.93;;;15.20;99.90;;;;;;5096990;28;20519;-69
2022/04/25 12:43:38;;;;;;;9.45;6.15;;;15.20;99.90;;;;;;5085018;28;20139;-70
2022/04/25 12:46:07;;;;;;;9.73;6.38;;;15.10;99.90;;;;;;5096919;28;20043;-70
2022/04/25 12:48:58;;;;;;;10.80;6.60;;;14.90;99.90;;;;;;5065167;28;20052;-69
2022/04/25 12:51:33;;;;;;;8.73;6.05;;;14.70;99.90;;;;;;5098419;28;20044;-72
2022/04/25 12:53:59;;;;;;;11.63;6.50;;;14.50;99.90;;;;;;5081121;28;20130;-72
2022/04/25 12:56:31;;;;;;;7.97;6.32;;;14.30;99.90;;;;;;5100376;28;20043;-70
2022/04/25 12:58:58;;;;;;;7.07;6.18;;;14.30;99.90;;;;;;5076280;28;20055;-71
2022/04/25 13:01:37;;;;;;;11.18;8.02;;;14.20;99.90;;;;;;5095071;28;20092;-69
2022/04/25 13:04:14;;;;;;;10.57;6.50;;;14.20;99.90;;;;;;5096022;28;20054;-69
2022/04/25 13:06:44;;;;;;;11.77;6.45;;;14.10;99.90;;;;;;5096649;28;20052;-70
2022/04/25 13:09:11;;;;;;;11.07;7.20;;;14.00;99.90;;;;;;5099246;28;20043;-70
2022/04/25 13:11:38;;;;;;;10.23;7.13;;;13.90;99.90;;;;;;5086670;28;20533;-70
2022/04/25 13:14:06;;;;;;;10.40;6.80;;;13.80;99.90;;;;;;5083695;28;20056;-69
2022/04/25 13:16:32;;;;;;;9.88;7.18;;;13.70;99.90;;;;;;5075341;28;20043;-71
2022/04/25 13:18:58;;;;;;;9.48;6.78;;;13.70;99.90;;;;;;5090651;28;20075;-73
2022/04/25 13:21:26;;;;;;;10.63;7.13;;;13.60;99.90;;;;;;5060289;28;20046;-71
2022/04/25 13:23:53;;;;;;;12.70;7.30;;;13.60;99.90;;;;;;5101544;28;20043;-72
2022/04/25 13:26:20;;;;;;;10.73;6.75;;;13.50;99.90;;;;;;5075545;28;20109;-73
2022/04/25 13:28:47;;;;;;;9.35;7.22;;;13.50;99.90;;;;;;5100204;28;20075;-72